createdAt,value
2022-09-24T00:01:40.088Z,7.70
2022-09-24T00:04:12.676Z,7.70
2022-09-24T00:06:45.609Z,7.70
2022-09-24T00:09:19.504Z,7.70
2022-09-24T00:11:47.147Z,7.80
2022-09-24T00:14:14.609Z,7.80
2022-09-24T00:16:43.920Z,7.80
2022-09-24T00:19:14.100Z,7.80
2022-09-24T00:21:42.496Z,7.90
2022-09-24T00:24:33.100Z,7.90
2022-09-24T00:27:27.346Z,7.90
2022-09-24T00:29:54.657Z,7.90
2022-09-24T00:32:23.851Z,7.80
2022-09-24T00:34:53.231Z,7.80
2022-09-24T00:37:23.145Z,7.80
2022-09-24T00:39:50.426Z,7.90
2022-09-24T00:42:22.897Z,7.80
2022-09-24T00:44:54.602Z,7.80
2022-09-24T00:47:39.605Z,7.80
2022-09-24T00:50:45.899Z,7.70
2022-09-24T00:53:19.677Z,7.70
2022-09-24T00:55:51.603Z,7.60
2022-09-24T00:58:19.121Z,7.50
2022-09-24T01:00:47.335Z,7.50
2022-09-24T01:03:22.657Z,7.40
2022-09-24T01:05:50.598Z,7.30
2022-09-24T01:08:19.343Z,7.20
2022-09-24T01:11:23.306Z,7.20
2022-09-24T01:14:10.683Z,7.00
2022-09-24T01:17:27.015Z,7.00
2022-09-24T01:20:31.242Z,6.80
2022-09-24T01:23:48.564Z,6.80
2022-09-24T01:27:06.576Z,6.90
2022-09-24T01:29:57.785Z,6.80
2022-09-24T01:32:37.240Z,6.80
2022-09-24T01:35:22.983Z,6.80
2022-09-24T01:37:58.604Z,6.90
2022-09-24T01:40:28.389Z,6.90
2022-09-24T01:42:58.885Z,6.90
2022-09-24T01:45:31.558Z,6.90
2022-09-24T01:48:02.026Z,6.90
2022-09-24T01:50:33.570Z,7.00
2022-09-24T01:53:21.237Z,7.00
2022-09-24T01:55:55.041Z,7.00
2022-09-24T01:58:33.603Z,7.00
2022-09-24T02:01:09.323Z,7.00
2022-09-24T02:03:43.254Z,7.00
2022-09-24T02:06:37.902Z,7.00
2022-09-24T02:09:38.359Z,7.00
2022-09-24T02:12:46.254Z,7.00
2022-09-24T02:15:31.428Z,7.00
2022-09-24T02:18:07.781Z,7.00
2022-09-24T02:20:37.023Z,6.90
2022-09-24T02:23:06.345Z,6.90
2022-09-24T02:25:42.216Z,6.80
2022-09-24T02:28:09.777Z,6.80
2022-09-24T02:30:41.909Z,6.70
2022-09-24T02:33:30.687Z,6.70
2022-09-24T02:35:58.360Z,6.60
2022-09-24T02:38:25.760Z,6.60
2022-09-24T02:43:44.864Z,6.60
2022-09-24T02:46:12.498Z,6.70
2022-09-24T02:48:39.808Z,6.70
2022-09-24T02:51:07.248Z,6.80
2022-09-24T02:53:35.243Z,6.70
2022-09-24T02:56:03.564Z,6.70
2022-09-24T02:58:31.481Z,6.70
2022-09-24T03:00:58.889Z,6.70
2022-09-24T03:03:26.739Z,6.70
2022-09-24T03:05:55.079Z,6.70
2022-09-24T03:08:24.239Z,6.70
2022-09-24T03:10:52.012Z,6.70
2022-09-24T03:13:19.434Z,6.70
2022-09-24T03:15:46.806Z,6.70
2022-09-24T03:18:14.885Z,6.80
2022-09-24T03:20:42.594Z,6.80
2022-09-24T03:23:09.938Z,6.80
2022-09-24T03:25:37.309Z,6.70
2022-09-24T03:28:04.619Z,6.70
2022-09-24T03:30:50.457Z,6.80
2022-09-24T03:33:17.773Z,6.90
2022-09-24T03:35:45.125Z,6.90
2022-09-24T03:38:14.658Z,6.80
2022-09-24T03:40:42.054Z,6.90
2022-09-24T03:43:09.414Z,6.90
2022-09-24T03:45:37.923Z,6.90
2022-09-24T03:48:06.590Z,6.80
2022-09-24T03:50:37.286Z,6.80
2022-09-24T03:53:05.090Z,6.80
2022-09-24T03:55:32.425Z,6.70
2022-09-24T03:58:00.026Z,6.70
2022-09-24T04:00:27.542Z,6.70
2022-09-24T04:02:54.902Z,6.60
2022-09-24T04:05:22.504Z,6.50
2022-09-24T04:07:49.854Z,6.40
2022-09-24T04:10:17.322Z,6.30
2022-09-24T04:12:46.141Z,6.30
2022-09-24T04:15:15.375Z,6.20
2022-09-24T04:17:50.595Z,6.10
2022-09-24T04:20:22.955Z,6.10
2022-09-24T04:22:51.022Z,6.10
2022-09-24T04:25:18.813Z,6.00
2022-09-24T04:27:46.144Z,6.00
2022-09-24T04:30:14.584Z,5.90
2022-09-24T04:32:42.176Z,5.90
2022-09-24T04:35:10.656Z,5.80
2022-09-24T04:37:38.235Z,5.80
2022-09-24T04:40:07.263Z,5.80
2022-09-24T04:42:34.603Z,5.80
2022-09-24T04:45:02.454Z,5.70
2022-09-24T04:47:29.804Z,5.70
2022-09-24T04:49:57.167Z,5.70
2022-09-24T04:52:29.748Z,5.70
2022-09-24T04:54:58.108Z,5.70
2022-09-24T04:57:29.584Z,5.80
2022-09-24T04:59:56.914Z,5.80
2022-09-24T05:02:24.915Z,5.70
2022-09-24T05:04:52.314Z,5.80
2022-09-24T05:07:22.529Z,6.00
2022-09-24T05:09:49.896Z,6.00
2022-09-24T05:12:18.235Z,6.10
2022-09-24T05:14:45.607Z,6.20
2022-09-24T05:17:13.064Z,6.30
2022-09-24T05:19:40.396Z,6.40
2022-09-24T05:22:07.810Z,6.50
2022-09-24T05:24:35.172Z,6.60
2022-09-24T05:27:11.709Z,6.80
2022-09-24T05:29:46.131Z,6.90
2022-09-24T05:32:15.737Z,7.00
2022-09-24T05:34:44.450Z,7.10
2022-09-24T05:37:12.905Z,7.20
2022-09-24T05:39:40.477Z,7.40
2022-09-24T05:42:15.730Z,7.50
2022-09-24T05:44:45.666Z,7.70
2022-09-24T05:47:18.097Z,7.80
2022-09-24T05:49:45.451Z,7.90
2022-09-24T05:52:13.336Z,8.00
2022-09-24T05:54:40.734Z,8.10
2022-09-24T05:57:08.052Z,8.10
2022-09-24T05:59:35.394Z,8.20
2022-09-24T06:02:02.797Z,8.30
2022-09-24T06:04:31.105Z,8.30
2022-09-24T06:06:58.486Z,8.40
2022-09-24T06:09:25.796Z,8.40
2022-09-24T06:11:54.766Z,8.40
2022-09-24T06:14:22.093Z,8.50
2022-09-24T06:16:49.381Z,8.60
2022-09-24T06:19:16.736Z,8.60
2022-09-24T06:21:44.026Z,8.70
2022-09-24T06:24:11.686Z,8.80
2022-09-24T06:26:38.966Z,9.00
2022-09-24T06:29:07.114Z,9.10
2022-09-24T06:31:34.860Z,9.30
2022-09-24T06:34:02.887Z,9.40
2022-09-24T06:36:30.212Z,9.60
2022-09-24T06:38:59.136Z,9.70
2022-09-24T06:41:26.529Z,9.90
2022-09-24T06:43:55.063Z,10.00
2022-09-24T06:46:25.949Z,10.10
2022-09-24T06:48:56.556Z,10.20
2022-09-24T06:51:24.079Z,10.40
2022-09-24T06:53:52.654Z,10.50
2022-09-24T06:56:20.132Z,10.40
2022-09-24T06:58:47.511Z,10.20
2022-09-24T07:01:17.978Z,10.20
2022-09-24T07:03:45.358Z,10.10
2022-09-24T07:06:12.650Z,10.20
2022-09-24T07:08:40.087Z,10.50
2022-09-24T07:11:08.376Z,10.70
2022-09-24T07:13:35.753Z,11.10
2022-09-24T07:16:03.165Z,11.60
2022-09-24T07:18:31.007Z,12.30
2022-09-24T07:20:58.309Z,12.60
2022-09-24T07:23:26.287Z,12.70
2022-09-24T07:25:57.324Z,12.50
2022-09-24T07:28:25.146Z,12.30
2022-09-24T07:30:59.811Z,12.20
2022-09-24T07:33:27.620Z,12.10
2022-09-24T07:35:54.942Z,12.50
2022-09-24T07:38:22.505Z,12.70
2022-09-24T07:40:49.955Z,12.90
2022-09-24T07:43:17.396Z,13.10
2022-09-24T07:45:45.274Z,13.20
2022-09-24T07:48:13.018Z,13.30
2022-09-24T07:50:41.551Z,13.30
2022-09-24T07:53:12.228Z,13.10
2022-09-24T07:55:40.933Z,13.30
2022-09-24T07:58:13.618Z,13.70
2022-09-24T08:00:41.337Z,14.10
2022-09-24T08:03:08.813Z,14.30
2022-09-24T08:05:36.245Z,14.60
2022-09-24T08:08:03.594Z,14.80
2022-09-24T08:10:30.932Z,14.90
2022-09-24T08:13:02.358Z,15.00
2022-09-24T08:15:30.167Z,15.20
2022-09-24T08:18:04.673Z,15.30
2022-09-24T08:20:32.860Z,15.60
2022-09-24T08:23:04.547Z,15.60
2022-09-24T08:25:32.235Z,15.20
2022-09-24T08:28:07.549Z,15.00
2022-09-24T08:30:35.611Z,14.80
2022-09-24T08:33:04.945Z,14.80
2022-09-24T08:35:33.779Z,15.00
2022-09-24T08:38:01.898Z,15.10
2022-09-24T08:40:36.210Z,15.50
2022-09-24T08:43:26.234Z,15.80
2022-09-24T08:46:16.373Z,15.90
2022-09-24T08:48:51.530Z,15.90
2022-09-24T08:51:22.063Z,16.20
2022-09-24T08:53:58.961Z,16.30
2022-09-24T08:56:29.939Z,16.70
2022-09-24T08:59:05.184Z,16.80
2022-09-24T09:01:51.084Z,17.10
2022-09-24T09:04:58.278Z,17.40
2022-09-24T09:07:31.232Z,17.50
2022-09-24T09:10:11.129Z,17.70
2022-09-24T09:12:48.039Z,17.70
2022-09-24T09:15:29.589Z,17.80
2022-09-24T09:18:04.294Z,17.90
2022-09-24T09:20:38.734Z,17.90
2022-09-24T09:23:36.836Z,17.80
2022-09-24T09:26:06.888Z,17.90
2022-09-24T09:28:34.312Z,18.10
2022-09-24T09:31:56.287Z,18.20
2022-09-24T09:35:11.286Z,18.20
2022-09-24T09:37:55.291Z,18.30
2022-09-24T09:40:31.567Z,17.90
2022-09-24T09:43:05.117Z,17.90
2022-09-24T09:45:42.063Z,17.90
2022-09-24T09:48:14.191Z,17.80
2022-09-24T09:51:13.745Z,17.90
2022-09-24T09:53:41.120Z,18.10
2022-09-24T09:56:08.590Z,18.20
2022-09-24T09:58:40.763Z,18.20
2022-09-24T10:01:17.259Z,18.60
2022-09-24T10:03:54.048Z,18.50
2022-09-24T10:06:33.159Z,18.70
2022-09-24T10:09:20.148Z,19.00
2022-09-24T10:11:48.390Z,19.20
2022-09-24T10:16:55.295Z,20.20
2022-09-24T10:19:28.759Z,20.60
2022-09-24T10:21:58.466Z,20.60
2022-09-24T10:24:27.907Z,20.60
2022-09-24T10:26:55.443Z,20.30
2022-09-24T10:29:44.875Z,19.80
2022-09-24T10:32:24.032Z,19.80
2022-09-24T10:35:20.120Z,20.00
2022-09-24T10:37:55.502Z,20.00
2022-09-24T10:40:30.906Z,19.80
2022-09-24T10:43:03.268Z,19.40
2022-09-24T10:46:21.745Z,19.20
2022-09-24T10:49:27.559Z,19.20
2022-09-24T10:52:48.067Z,19.40
2022-09-24T10:55:57.220Z,19.90
2022-09-24T10:58:46.555Z,19.90
2022-09-24T11:01:35.686Z,19.80
2022-09-24T11:04:42.430Z,19.60
2022-09-24T11:07:18.361Z,19.20
2022-09-24T11:10:35.998Z,19.00
2022-09-24T11:13:23.382Z,19.00
2022-09-24T11:16:30.784Z,19.00
2022-09-24T11:19:44.167Z,18.80
2022-09-24T11:22:25.823Z,18.60
2022-09-24T11:28:56.141Z,18.80
2022-09-24T11:31:38.786Z,18.70
2022-09-24T11:34:17.338Z,18.80
2022-09-24T11:37:16.156Z,18.90
2022-09-24T11:52:44.727Z,18.70
2022-09-24T11:55:34.833Z,18.70
2022-09-24T11:58:24.140Z,18.60
2022-09-24T12:01:10.546Z,18.70
2022-09-24T12:03:49.341Z,18.80
2022-09-24T12:06:24.372Z,18.80
2022-09-24T12:09:01.635Z,18.80
2022-09-24T12:12:09.712Z,18.80
2022-09-24T12:15:01.872Z,18.90
2022-09-24T12:17:41.614Z,18.90
2022-09-24T12:20:30.541Z,19.00
2022-09-24T12:23:04.927Z,19.00
2022-09-24T12:25:42.831Z,18.90
2022-09-24T12:28:14.709Z,18.90
2022-09-24T12:31:12.463Z,18.90
2022-09-24T12:33:48.917Z,18.90
2022-09-24T12:36:57.060Z,18.70
2022-09-24T12:39:32.970Z,18.90
2022-09-24T12:42:05.759Z,18.90
2022-09-24T12:44:46.844Z,18.90
2022-09-24T12:47:23.328Z,18.90
2022-09-24T12:50:06.050Z,18.90
2022-09-24T12:52:43.354Z,19.10
2022-09-24T12:55:31.677Z,19.20
2022-09-24T12:58:05.853Z,19.40
2022-09-24T13:00:42.029Z,19.50
2022-09-24T13:03:47.443Z,19.50
2022-09-24T13:06:33.064Z,19.40
2022-09-24T13:09:01.001Z,19.30
2022-09-24T13:11:31.977Z,19.20
2022-09-24T13:14:22.144Z,19.10
2022-09-24T13:16:53.331Z,19.00
2022-09-24T13:19:55.918Z,19.00
2022-09-24T13:22:32.684Z,19.20
2022-09-24T13:25:27.299Z,19.30
2022-09-24T13:28:20.032Z,19.10
2022-09-24T13:30:54.124Z,19.20
2022-09-24T13:33:33.669Z,19.10
2022-09-24T13:36:16.423Z,19.30
2022-09-24T13:39:00.963Z,19.40
2022-09-24T13:41:46.971Z,19.50
2022-09-24T13:44:33.437Z,19.50
2022-09-24T13:47:11.169Z,19.50
2022-09-24T13:49:45.218Z,19.50
2022-09-24T13:52:25.748Z,19.40
2022-09-24T13:54:56.867Z,19.50
2022-09-24T13:57:26.696Z,19.60
2022-09-24T14:00:27.826Z,19.70
2022-09-24T14:03:20.736Z,19.80
2022-09-24T14:05:50.453Z,19.70
2022-09-24T14:08:21.360Z,19.80
2022-09-24T14:10:49.136Z,19.70
2022-09-24T14:13:22.632Z,19.80
2022-09-24T14:16:20.521Z,19.80
2022-09-24T14:18:49.322Z,20.00
2022-09-24T14:21:24.295Z,20.10
2022-09-24T14:24:06.049Z,20.00
2022-09-24T14:26:51.479Z,20.00
2022-09-24T14:29:27.999Z,20.00
2022-09-24T14:32:02.005Z,20.00
2022-09-24T14:34:44.319Z,19.90
2022-09-24T14:37:23.973Z,20.00
2022-09-24T14:39:57.578Z,20.00
2022-09-24T14:42:38.462Z,20.10
2022-09-24T14:45:08.509Z,20.00
2022-09-24T14:47:37.223Z,19.90
2022-09-24T14:50:24.732Z,20.00
2022-09-24T14:53:00.809Z,19.90
2022-09-24T14:55:39.859Z,20.00
2022-09-24T14:58:27.019Z,19.90
2022-09-24T15:00:58.173Z,19.90
2022-09-24T15:03:37.853Z,19.60
2022-09-24T15:06:13.514Z,19.50
2022-09-24T15:08:42.378Z,19.40
2022-09-24T15:11:20.685Z,19.40
2022-09-24T15:13:58.529Z,19.40
2022-09-24T15:16:46.851Z,19.60
2022-09-24T15:19:20.149Z,19.70
2022-09-24T15:21:49.234Z,19.80
2022-09-24T15:24:17.603Z,19.90
2022-09-24T15:26:48.518Z,19.60
2022-09-24T15:29:20.908Z,19.20
2022-09-24T15:31:48.302Z,18.70
2022-09-24T15:34:19.776Z,18.40
2022-09-24T15:36:54.088Z,18.10
2022-09-24T15:39:21.684Z,17.90
2022-09-24T15:41:49.035Z,17.60
2022-09-24T15:44:22.956Z,17.60
2022-09-24T15:46:51.642Z,17.70
2022-09-24T15:49:23.046Z,17.80
2022-09-24T15:51:53.926Z,17.90
2022-09-24T15:54:22.252Z,17.90
2022-09-24T15:56:52.654Z,18.00
2022-09-24T15:59:22.070Z,18.30
2022-09-24T16:01:52.359Z,18.50
2022-09-24T16:04:19.846Z,18.60
2022-09-24T16:06:47.267Z,18.40
2022-09-24T16:09:14.601Z,18.20
2022-09-24T16:11:42.220Z,18.00
2022-09-24T16:14:10.417Z,17.70
2022-09-24T16:16:41.120Z,17.40
2022-09-24T16:19:09.495Z,17.10
2022-09-24T16:21:37.275Z,16.80
2022-09-24T16:24:05.028Z,16.60
2022-09-24T16:26:32.515Z,16.50
2022-09-24T16:29:02.529Z,16.30
2022-09-24T16:31:30.114Z,16.00
2022-09-24T16:33:57.663Z,15.90
2022-09-24T16:36:25.078Z,15.70
2022-09-24T16:38:52.419Z,15.60
2022-09-24T16:41:19.700Z,15.40
2022-09-24T16:43:47.127Z,15.30
2022-09-24T16:46:20.143Z,15.10
2022-09-24T16:48:51.568Z,15.10
2022-09-24T16:51:19.648Z,15.00
2022-09-24T16:53:48.962Z,14.90
2022-09-24T16:56:17.587Z,14.80
2022-09-24T16:58:46.433Z,14.80
2022-09-24T17:01:18.737Z,14.70
2022-09-24T17:03:51.650Z,14.50
2022-09-24T17:06:24.471Z,14.40
2022-09-24T17:09:10.754Z,14.30
2022-09-24T17:11:40.220Z,14.30
2022-09-24T17:14:10.504Z,14.10
2022-09-24T17:16:38.700Z,14.00
2022-09-24T17:19:07.977Z,13.90
2022-09-24T17:21:37.172Z,13.90
2022-09-24T17:24:05.156Z,13.80
2022-09-24T17:26:32.626Z,13.70
2022-09-24T17:28:59.993Z,13.60
2022-09-24T17:31:27.576Z,13.50
2022-09-24T17:33:56.270Z,13.30
2022-09-24T17:36:24.910Z,13.10
2022-09-24T17:38:52.374Z,13.00
2022-09-24T17:41:20.628Z,12.80
2022-09-24T17:43:48.216Z,12.70
2022-09-24T17:46:20.873Z,12.50
2022-09-24T17:48:53.289Z,12.40
2022-09-24T17:51:32.667Z,12.30
2022-09-24T17:54:02.095Z,12.20
2022-09-24T17:56:34.622Z,12.10
2022-09-24T17:59:02.049Z,11.90
2022-09-24T18:01:37.015Z,11.80
2022-09-24T18:04:15.465Z,11.70
2022-09-24T18:06:45.066Z,11.60
2022-09-24T18:09:14.291Z,11.40
2022-09-24T18:11:51.635Z,11.50
2022-09-24T18:14:21.923Z,11.30
2022-09-24T18:16:50.209Z,11.30
2022-09-24T18:19:18.135Z,11.30
2022-09-24T18:21:46.574Z,11.20
2022-09-24T18:24:17.509Z,11.20
2022-09-24T18:26:47.405Z,11.10
2022-09-24T18:29:17.706Z,11.10
2022-09-24T18:31:45.489Z,11.10
2022-09-24T18:34:15.395Z,10.90
2022-09-24T18:36:44.086Z,10.80
2022-09-24T18:39:14.755Z,10.80
2022-09-24T18:41:44.471Z,10.70
2022-09-24T18:44:12.030Z,10.60
2022-09-24T18:46:39.614Z,10.60
2022-09-24T18:49:07.014Z,10.50
2022-09-24T18:51:36.418Z,10.50
2022-09-24T18:54:07.441Z,10.40
2022-09-24T18:56:37.566Z,10.40
2022-09-24T18:59:09.761Z,10.40
2022-09-24T19:01:39.069Z,10.50
2022-09-24T19:04:10.739Z,10.40
2022-09-24T19:06:43.230Z,10.30
2022-09-24T19:09:13.390Z,10.30
2022-09-24T19:11:41.907Z,10.30
2022-09-24T19:14:11.455Z,10.30
2022-09-24T19:16:39.890Z,10.20
2022-09-24T19:19:11.243Z,10.10
2022-09-24T19:21:38.972Z,10.10
2022-09-24T19:24:08.320Z,10.10
2022-09-24T19:26:36.728Z,10.10
2022-09-24T19:29:05.216Z,10.00
2022-09-24T19:31:38.626Z,10.00
2022-09-24T19:34:08.456Z,10.00
2022-09-24T19:36:44.889Z,9.90
2022-09-24T19:39:15.058Z,9.90
2022-09-24T19:41:43.027Z,9.90
2022-09-24T19:44:11.420Z,9.80
2022-09-24T19:46:39.961Z,9.80
2022-09-24T19:49:07.583Z,9.70
2022-09-24T19:51:36.238Z,9.70
2022-09-24T19:54:09.005Z,9.60
2022-09-24T19:56:38.206Z,9.60
2022-09-24T19:59:06.060Z,9.60
2022-09-24T20:01:34.110Z,9.50
2022-09-24T20:04:04.559Z,9.50
2022-09-24T20:06:34.143Z,9.50
2022-09-24T20:09:01.947Z,9.50
2022-09-24T20:11:32.446Z,9.50
2022-09-24T20:14:01.328Z,9.50
2022-09-24T20:16:33.073Z,9.40
2022-09-24T20:19:02.203Z,9.40
2022-09-24T20:21:34.609Z,9.40
2022-09-24T20:24:07.034Z,9.50
2022-09-24T20:26:53.435Z,9.50
2022-09-24T20:29:21.941Z,9.50
2022-09-24T20:31:52.748Z,9.40
2022-09-24T20:34:25.118Z,9.40
2022-09-24T20:36:52.572Z,9.40
2022-09-24T20:39:20.742Z,9.40
2022-09-24T20:41:49.587Z,9.40
2022-09-24T20:44:17.869Z,9.30
2022-09-24T20:46:45.295Z,9.30
2022-09-24T20:49:24.514Z,9.30
2022-09-24T20:51:57.062Z,9.30
2022-09-24T20:54:26.894Z,9.30
2022-09-24T20:56:54.675Z,9.40
2022-09-24T20:59:21.990Z,9.40
2022-09-24T21:01:49.617Z,9.40
2022-09-24T21:04:19.965Z,9.30
2022-09-24T21:06:50.607Z,9.30
2022-09-24T21:09:18.255Z,9.30
2022-09-24T21:11:45.646Z,9.30
2022-09-24T21:14:13.198Z,9.30
2022-09-24T21:16:40.635Z,9.20
2022-09-24T21:19:08.153Z,9.20
2022-09-24T21:21:39.145Z,9.20
2022-09-24T21:24:10.190Z,9.20
2022-09-24T21:26:41.588Z,9.20
2022-09-24T21:29:20.817Z,9.20
2022-09-24T21:31:50.869Z,9.10
2022-09-24T21:34:20.802Z,9.10
2022-09-24T21:36:48.595Z,9.10
2022-09-24T21:39:17.605Z,9.10
2022-09-24T21:41:48.260Z,9.10
2022-09-24T21:44:19.244Z,9.20
2022-09-24T21:46:47.717Z,9.30
2022-09-24T21:49:17.173Z,9.20
2022-09-24T21:51:45.741Z,9.20
2022-09-24T21:54:16.271Z,9.10
2022-09-24T21:56:44.256Z,9.10
2022-09-24T21:59:29.972Z,9.00
2022-09-24T22:01:57.431Z,9.00
2022-09-24T22:04:24.939Z,8.90
2022-09-24T22:06:52.618Z,9.00
2022-09-24T22:09:20.456Z,9.00
2022-09-24T22:11:47.811Z,8.90
2022-09-24T22:14:15.185Z,8.80
2022-09-24T22:16:42.615Z,8.70
2022-09-24T22:19:09.995Z,8.70
2022-09-24T22:21:40.647Z,8.70
2022-09-24T22:24:08.252Z,8.60
2022-09-24T22:26:35.706Z,8.60
2022-09-24T22:29:06.399Z,8.60
2022-09-24T22:31:34.193Z,8.50
2022-09-24T22:34:20.204Z,8.50
2022-09-24T22:36:48.087Z,8.40
2022-09-24T22:39:15.634Z,8.40
2022-09-24T22:41:43.448Z,8.40
2022-09-24T22:44:12.103Z,8.40
2022-09-24T22:46:41.426Z,8.30
2022-09-24T22:49:10.994Z,8.20
2022-09-24T22:51:39.490Z,8.20
2022-09-24T22:54:08.596Z,8.20
2022-09-24T22:56:36.680Z,8.10
2022-09-24T22:59:05.225Z,8.10
2022-09-24T23:01:41.096Z,8.10
2022-09-24T23:04:15.309Z,8.00
2022-09-24T23:06:43.769Z,8.00
2022-09-24T23:09:11.464Z,8.00
2022-09-24T23:11:39.371Z,8.00
2022-09-24T23:14:12.065Z,8.00
2022-09-24T23:16:39.947Z,8.00
2022-09-24T23:19:12.298Z,7.90
2022-09-24T23:21:39.697Z,7.90
2022-09-24T23:24:09.468Z,7.90
2022-09-24T23:26:37.262Z,7.90
2022-09-24T23:29:05.138Z,8.00
2022-09-24T23:31:35.447Z,7.90
2022-09-24T23:34:03.969Z,7.90
2022-09-24T23:36:32.503Z,7.90
2022-09-24T23:39:00.943Z,7.80
2022-09-24T23:41:30.002Z,7.80
2022-09-24T23:43:58.372Z,7.80
2022-09-24T23:46:25.780Z,7.70
2022-09-24T23:48:53.241Z,7.70
2022-09-24T23:51:20.627Z,7.70
2022-09-24T23:53:48.013Z,7.70
2022-09-24T23:56:15.380Z,7.70
2022-09-24T23:58:42.890Z,7.80
